createdAt,value
2017-09-27T00:00:48.193Z,0
2017-09-27T00:01:57.028Z,0
2017-09-27T00:03:06.192Z,0
2017-09-27T00:04:15.024Z,0
2017-09-27T00:05:23.863Z,0
2017-09-27T00:06:32.693Z,0
2017-09-27T00:07:41.528Z,0
2017-09-27T00:08:50.367Z,0
2017-09-27T00:09:59.203Z,0
2017-09-27T00:11:08.039Z,0
2017-09-27T00:12:16.880Z,0
2017-09-27T00:13:25.711Z,0
2017-09-27T00:14:34.548Z,0
2017-09-27T00:15:43.384Z,0
2017-09-27T00:16:52.221Z,0
2017-09-27T00:18:01.050Z,0
2017-09-27T00:19:09.888Z,0
2017-09-27T00:20:18.719Z,0
2017-09-27T00:21:27.556Z,0
2017-09-27T00:22:36.392Z,0
2017-09-27T00:23:45.224Z,0
2017-09-27T00:24:54.057Z,0
2017-09-27T00:26:02.892Z,0
2017-09-27T00:27:11.727Z,0
2017-09-27T00:28:20.558Z,0
2017-09-27T00:29:29.394Z,0
2017-09-27T00:30:38.229Z,0
2017-09-27T00:31:47.064Z,0
2017-09-27T00:32:55.899Z,0
2017-09-27T00:34:04.729Z,0
2017-09-27T00:35:13.565Z,0
2017-09-27T00:36:22.396Z,0
2017-09-27T00:37:31.234Z,0
2017-09-27T00:38:40.069Z,0
2017-09-27T00:39:48.903Z,0
2017-09-27T00:40:58.061Z,0
2017-09-27T00:42:06.898Z,0
2017-09-27T00:43:15.722Z,0
2017-09-27T00:44:24.561Z,0
2017-09-27T00:45:33.388Z,0
2017-09-27T00:46:42.224Z,0
2017-09-27T00:47:51.386Z,0
2017-09-27T00:49:00.220Z,0
2017-09-27T00:50:09.052Z,0
2017-09-27T00:51:17.885Z,0
2017-09-27T00:52:26.719Z,0
2017-09-27T00:53:35.553Z,0
2017-09-27T00:54:44.386Z,0
2017-09-27T00:55:53.217Z,0
2017-09-27T00:57:02.054Z,0
2017-09-27T00:58:11.223Z,0
2017-09-27T00:59:20.047Z,0
2017-09-27T01:00:28.881Z,0
2017-09-27T01:01:38.033Z,0
2017-09-27T01:02:46.870Z,0
2017-09-27T01:03:55.703Z,0
2017-09-27T01:05:04.541Z,0
2017-09-27T01:06:13.373Z,0
2017-09-27T01:07:22.203Z,0
2017-09-27T01:08:31.040Z,0
2017-09-27T01:09:39.875Z,0
2017-09-27T01:10:48.710Z,0
2017-09-27T01:11:57.545Z,0
2017-09-27T01:13:06.379Z,0
2017-09-27T01:14:15.215Z,0
2017-09-27T01:15:24.047Z,0
2017-09-27T01:16:32.888Z,0
2017-09-27T01:17:41.715Z,0
2017-09-27T01:18:50.552Z,0
2017-09-27T01:19:59.384Z,0
2017-09-27T01:21:08.540Z,0
2017-09-27T01:22:17.379Z,0
2017-09-27T01:23:26.215Z,0
2017-09-27T01:24:35.050Z,0
2017-09-27T01:25:44.203Z,0
2017-09-27T01:26:53.037Z,0
2017-09-27T01:28:02.204Z,0
2017-09-27T01:29:11.037Z,0
2017-09-27T01:30:19.877Z,0
2017-09-27T01:31:28.703Z,0
2017-09-27T01:32:37.542Z,0
2017-09-27T01:33:46.370Z,0
2017-09-27T01:34:55.208Z,0
2017-09-27T01:36:04.050Z,0
2017-09-27T01:37:13.205Z,0
2017-09-27T01:38:22.036Z,0
2017-09-27T01:39:30.876Z,0
2017-09-27T01:40:39.702Z,0
2017-09-27T01:41:48.544Z,0
2017-09-27T01:42:57.376Z,0
2017-09-27T01:44:06.215Z,0
2017-09-27T01:45:15.050Z,0
2017-09-27T01:46:23.889Z,0
2017-09-27T01:47:32.724Z,0
2017-09-27T01:48:41.560Z,0
2017-09-27T01:49:50.390Z,0
2017-09-27T01:50:59.220Z,0
2017-09-27T01:52:08.380Z,0
2017-09-27T01:53:17.218Z,0
2017-09-27T01:54:26.048Z,0
2017-09-27T01:55:34.884Z,0
2017-09-27T01:56:43.714Z,0
2017-09-27T01:57:52.545Z,0
2017-09-27T01:59:01.381Z,0
2017-09-27T02:00:10.219Z,0
2017-09-27T02:01:19.050Z,0
2017-09-27T02:02:27.879Z,0
2017-09-27T02:03:36.713Z,0
2017-09-27T02:04:45.546Z,0
2017-09-27T02:05:54.382Z,0
2017-09-27T02:07:03.222Z,0
2017-09-27T02:08:12.050Z,0
2017-09-27T02:09:20.888Z,0
2017-09-27T02:10:29.717Z,0
2017-09-27T02:11:38.553Z,0
2017-09-27T02:12:47.389Z,0
2017-09-27T02:13:56.228Z,0
2017-09-27T02:15:05.058Z,0
2017-09-27T02:16:13.892Z,0
2017-09-27T02:17:23.061Z,0
2017-09-27T02:18:31.896Z,0
2017-09-27T02:19:40.729Z,0
2017-09-27T02:20:49.565Z,0
2017-09-27T02:21:58.398Z,0
2017-09-27T02:23:07.234Z,0
2017-09-27T02:24:16.067Z,0
2017-09-27T02:25:24.904Z,0
2017-09-27T02:26:33.735Z,0
2017-09-27T02:27:42.572Z,0
2017-09-27T02:28:51.401Z,0
2017-09-27T02:30:00.559Z,0
2017-09-27T02:31:09.390Z,0
2017-09-27T02:32:18.222Z,0
2017-09-27T02:33:27.062Z,0
2017-09-27T02:34:35.894Z,0
2017-09-27T02:35:44.721Z,0
2017-09-27T02:36:53.556Z,0
2017-09-27T02:38:02.718Z,0
2017-09-27T02:39:11.553Z,0
2017-09-27T02:40:20.385Z,0
2017-09-27T02:41:29.218Z,0
2017-09-27T02:42:38.053Z,0
2017-09-27T02:43:46.886Z,0
2017-09-27T02:44:55.723Z,0
2017-09-27T02:46:04.560Z,0
2017-09-27T02:47:13.388Z,0
2017-09-27T02:48:22.221Z,0
2017-09-27T02:49:31.056Z,0
2017-09-27T02:50:39.891Z,0
2017-09-27T02:51:48.724Z,0
2017-09-27T02:52:57.560Z,0
2017-09-27T02:54:06.393Z,0
2017-09-27T02:55:15.234Z,0
2017-09-27T02:56:24.064Z,0
2017-09-27T02:57:32.893Z,0
2017-09-27T02:58:41.730Z,0
2017-09-27T02:59:50.565Z,0
2017-09-27T03:00:59.396Z,0
2017-09-27T03:02:08.232Z,0
2017-09-27T03:03:17.068Z,0
2017-09-27T03:04:25.901Z,0
2017-09-27T03:05:34.737Z,0
2017-09-27T03:06:43.576Z,0
2017-09-27T03:07:52.405Z,0
2017-09-27T03:09:01.242Z,0
2017-09-27T03:10:10.071Z,0
2017-09-27T03:11:18.904Z,0
2017-09-27T03:12:27.792Z,0
2017-09-27T03:13:36.631Z,0
2017-09-27T03:14:45.463Z,0
2017-09-27T03:15:54.298Z,0
2017-09-27T03:17:03.129Z,0
2017-09-27T03:18:11.957Z,0
2017-09-27T03:19:20.792Z,0
2017-09-27T03:20:29.629Z,0
2017-09-27T03:21:38.458Z,0
2017-09-27T03:22:47.296Z,0
2017-09-27T03:23:56.125Z,0
2017-09-27T03:25:04.962Z,0
2017-09-27T03:26:13.795Z,0
2017-09-27T03:27:22.631Z,0
2017-09-27T03:28:31.462Z,0
2017-09-27T03:29:40.295Z,0
2017-09-27T03:30:49.127Z,0
2017-09-27T03:31:57.964Z,0
2017-09-27T03:33:06.806Z,0
2017-09-27T03:34:15.641Z,0
2017-09-27T03:35:24.800Z,0
2017-09-27T03:36:33.628Z,0
2017-09-27T03:37:42.469Z,0
2017-09-27T03:38:51.298Z,0
2017-09-27T03:40:00.134Z,0
2017-09-27T03:41:08.965Z,0
2017-09-27T03:42:17.803Z,0
2017-09-27T03:43:26.630Z,0
2017-09-27T03:44:35.462Z,0
2017-09-27T03:45:44.294Z,0
2017-09-27T03:46:53.130Z,0
2017-09-27T03:48:01.965Z,0
2017-09-27T03:49:11.123Z,0
2017-09-27T03:50:19.958Z,0
2017-09-27T03:51:28.793Z,0
2017-09-27T03:52:37.623Z,0
2017-09-27T03:53:46.781Z,0
2017-09-27T03:54:55.614Z,0
2017-09-27T03:56:04.774Z,0
2017-09-27T03:57:13.930Z,0
2017-09-27T03:58:23.097Z,0
2017-09-27T03:59:31.929Z,0
2017-09-27T04:00:40.762Z,0
2017-09-27T04:01:49.601Z,0
2017-09-27T04:02:58.430Z,0
2017-09-27T04:04:07.595Z,0
2017-09-27T04:05:16.754Z,0
2017-09-27T04:06:25.589Z,0
2017-09-27T04:07:34.418Z,0
2017-09-27T04:08:43.253Z,0
2017-09-27T04:09:52.084Z,0
2017-09-27T04:11:00.919Z,0
2017-09-27T04:12:09.752Z,0
2017-09-27T04:13:18.586Z,0
2017-09-27T04:14:27.417Z,0
2017-09-27T04:15:36.250Z,0
2017-09-27T04:16:45.085Z,0
2017-09-27T04:17:53.916Z,0
2017-09-27T04:19:02.753Z,0
2017-09-27T04:20:11.591Z,0
2017-09-27T04:21:20.421Z,0
2017-09-27T04:22:29.259Z,0
2017-09-27T04:23:38.089Z,0
2017-09-27T04:24:46.921Z,0
2017-09-27T04:25:56.074Z,0
2017-09-27T04:27:04.914Z,0
2017-09-27T04:28:13.750Z,0
2017-09-27T04:29:22.587Z,0
2017-09-27T04:30:31.419Z,0
2017-09-27T04:31:40.253Z,0
2017-09-27T04:32:49.094Z,0
2017-09-27T04:33:57.924Z,0
2017-09-27T04:35:06.760Z,0
2017-09-27T04:36:15.592Z,0
2017-09-27T04:37:24.429Z,0
2017-09-27T04:38:33.259Z,0
2017-09-27T04:39:42.092Z,0
2017-09-27T04:40:50.928Z,0
2017-09-27T04:41:59.759Z,0
2017-09-27T04:43:08.592Z,0
2017-09-27T04:44:17.432Z,0
2017-09-27T04:45:26.260Z,0
2017-09-27T04:46:35.092Z,0
2017-09-27T04:47:43.933Z,0
2017-09-27T04:48:52.772Z,0
2017-09-27T04:50:01.604Z,0
2017-09-27T04:51:10.764Z,0
2017-09-27T04:52:19.595Z,0
2017-09-27T04:53:28.434Z,0
2017-09-27T04:54:37.266Z,0
2017-09-27T04:55:46.101Z,0
2017-09-27T04:56:55.259Z,0
2017-09-27T04:58:04.094Z,0
2017-09-27T04:59:12.926Z,0
2017-09-27T05:00:21.765Z,0
2017-09-27T05:01:30.601Z,0
2017-09-27T05:02:39.427Z,0
2017-09-27T05:03:48.264Z,0
2017-09-27T05:04:57.102Z,0
2017-09-27T05:06:05.937Z,0
2017-09-27T05:07:14.771Z,0
2017-09-27T05:08:23.604Z,0
2017-09-27T05:09:32.439Z,0
2017-09-27T05:10:41.270Z,0
2017-09-27T05:11:50.102Z,0
2017-09-27T05:12:58.936Z,0
2017-09-27T05:14:07.773Z,0
2017-09-27T05:15:16.607Z,0
2017-09-27T05:16:25.440Z,0
2017-09-27T05:17:34.277Z,0
2017-09-27T05:18:43.110Z,0
2017-09-27T05:19:51.948Z,0
2017-09-27T05:21:00.774Z,0
2017-09-27T05:22:09.613Z,0
2017-09-27T05:23:18.453Z,0
2017-09-27T05:24:27.934Z,0
2017-09-27T05:25:36.771Z,0
2017-09-27T05:26:45.602Z,0
2017-09-27T05:27:54.434Z,0
2017-09-27T05:29:03.275Z,0
2017-09-27T05:30:12.107Z,0
2017-09-27T05:31:20.939Z,0
2017-09-27T05:32:29.774Z,0
2017-09-27T05:33:38.602Z,0
2017-09-27T05:34:47.437Z,0
2017-09-27T05:35:56.268Z,0
2017-09-27T05:37:05.136Z,0
2017-09-27T05:38:13.941Z,0
2017-09-27T05:39:22.777Z,5
2017-09-27T05:40:31.609Z,5
2017-09-27T05:41:40.440Z,5
2017-09-27T05:42:49.275Z,5
2017-09-27T05:43:58.111Z,5
2017-09-27T05:45:06.951Z,5
2017-09-27T05:46:15.781Z,5
2017-09-27T05:47:24.617Z,5
2017-09-27T05:48:33.459Z,5
2017-09-27T05:49:42.291Z,5
2017-09-27T05:50:51.126Z,5
2017-09-27T05:51:59.990Z,5
2017-09-27T05:53:08.792Z,5
2017-09-27T05:54:17.626Z,5
2017-09-27T05:55:26.462Z,5
2017-09-27T05:56:35.299Z,5
2017-09-27T05:57:44.130Z,5
2017-09-27T05:58:52.963Z,5
2017-09-27T06:00:01.797Z,5
2017-09-27T06:01:10.630Z,5
2017-09-27T06:02:19.470Z,5
2017-09-27T06:03:28.298Z,10
2017-09-27T06:04:37.135Z,5
2017-09-27T06:05:46.296Z,5
2017-09-27T06:06:55.129Z,5
2017-09-27T06:08:03.963Z,5
2017-09-27T06:09:12.799Z,10
2017-09-27T06:10:21.960Z,5
2017-09-27T06:11:30.796Z,5
2017-09-27T06:12:39.630Z,5
2017-09-27T06:13:48.788Z,5
2017-09-27T06:14:57.619Z,5
2017-09-27T06:16:06.454Z,5
2017-09-27T06:17:15.292Z,5
2017-09-27T06:18:24.124Z,5
2017-09-27T06:19:32.960Z,5
2017-09-27T06:20:41.796Z,5
2017-09-27T06:21:50.631Z,5
2017-09-27T06:22:59.464Z,5
2017-09-27T06:24:08.302Z,5
2017-09-27T06:25:17.140Z,10
2017-09-27T06:26:25.966Z,10
2017-09-27T06:27:34.801Z,10
2017-09-27T06:28:43.628Z,10
2017-09-27T06:29:52.467Z,10
2017-09-27T06:31:01.303Z,10
2017-09-27T06:32:10.140Z,10
2017-09-27T06:33:18.966Z,10
2017-09-27T06:34:27.803Z,10
2017-09-27T06:35:36.638Z,10
2017-09-27T06:36:45.471Z,10
2017-09-27T06:37:54.956Z,10
2017-09-27T06:39:03.791Z,10
2017-09-27T06:40:12.628Z,10
2017-09-27T06:41:21.458Z,10
2017-09-27T06:42:30.293Z,10
2017-09-27T06:43:39.127Z,10
2017-09-27T06:44:47.968Z,10
2017-09-27T06:45:56.797Z,15
2017-09-27T06:47:05.630Z,15
2017-09-27T06:48:14.462Z,15
2017-09-27T06:49:23.292Z,15
2017-09-27T06:50:32.129Z,15
2017-09-27T06:51:40.969Z,15
2017-09-27T06:52:49.801Z,15
2017-09-27T06:53:58.631Z,15
2017-09-27T06:55:07.468Z,20
2017-09-27T06:56:16.628Z,15
2017-09-27T06:57:25.463Z,15
2017-09-27T06:58:34.301Z,15
2017-09-27T06:59:43.131Z,15
2017-09-27T07:00:51.964Z,20
2017-09-27T07:02:00.801Z,20
2017-09-27T07:03:09.638Z,20
2017-09-27T07:04:18.475Z,20
2017-09-27T07:05:27.310Z,20
2017-09-27T07:06:36.145Z,20
2017-09-27T07:07:44.977Z,15
2017-09-27T07:08:53.817Z,20
2017-09-27T07:10:02.651Z,15
2017-09-27T07:11:11.486Z,15
2017-09-27T07:12:20.318Z,15
2017-09-27T07:13:29.152Z,15
2017-09-27T07:14:37.986Z,15
2017-09-27T07:15:46.816Z,15
2017-09-27T07:16:55.652Z,15
2017-09-27T07:18:04.484Z,15
2017-09-27T07:19:13.321Z,15
2017-09-27T07:20:22.157Z,15
2017-09-27T07:21:30.989Z,15
2017-09-27T07:22:39.824Z,20
2017-09-27T07:23:48.655Z,15
2017-09-27T07:24:57.493Z,20
2017-09-27T07:26:06.326Z,20
2017-09-27T07:27:15.163Z,15
2017-09-27T07:28:23.996Z,20
2017-09-27T07:29:32.831Z,20
2017-09-27T07:30:41.667Z,25
2017-09-27T07:31:50.504Z,20
2017-09-27T07:32:59.336Z,25
2017-09-27T07:34:08.175Z,25
2017-09-27T07:35:17.004Z,25
2017-09-27T07:36:25.840Z,25
2017-09-27T07:37:34.673Z,25
2017-09-27T07:38:43.508Z,25
2017-09-27T07:39:52.343Z,30
2017-09-27T07:41:01.180Z,30
2017-09-27T07:42:10.014Z,30
2017-09-27T07:43:18.847Z,35
2017-09-27T07:44:27.686Z,40
2017-09-27T07:45:36.522Z,40
2017-09-27T07:46:45.354Z,35
2017-09-27T07:47:54.190Z,35
2017-09-27T07:49:03.030Z,40
2017-09-27T07:50:11.867Z,40
2017-09-27T07:51:20.699Z,30
2017-09-27T07:52:29.857Z,45
2017-09-27T07:53:38.694Z,45
2017-09-27T07:54:47.529Z,25
2017-09-27T07:55:56.362Z,30
2017-09-27T07:57:05.197Z,25
2017-09-27T07:58:14.027Z,30
2017-09-27T07:59:22.862Z,40
2017-09-27T08:00:32.024Z,30
2017-09-27T08:01:40.853Z,30
2017-09-27T08:02:49.691Z,30
2017-09-27T08:03:58.521Z,25
2017-09-27T08:05:07.355Z,25
2017-09-27T08:06:16.192Z,30
2017-09-27T08:07:25.032Z,30
2017-09-27T08:08:33.868Z,25
2017-09-27T08:09:42.707Z,25
2017-09-27T08:10:51.538Z,25
2017-09-27T08:12:00.372Z,25
2017-09-27T08:13:09.211Z,30
2017-09-27T08:14:18.054Z,35
2017-09-27T08:15:26.885Z,25
2017-09-27T08:16:35.723Z,30
2017-09-27T08:17:44.556Z,25
2017-09-27T08:18:53.393Z,30
2017-09-27T08:20:02.230Z,30
2017-09-27T08:21:11.063Z,30
2017-09-27T08:22:19.897Z,30
2017-09-27T08:23:28.730Z,35
2017-09-27T08:24:37.565Z,30
2017-09-27T08:25:46.399Z,25
2017-09-27T08:26:55.560Z,25
2017-09-27T08:28:04.396Z,25
2017-09-27T08:29:13.554Z,35
2017-09-27T08:30:22.385Z,40
2017-09-27T08:31:31.221Z,50
2017-09-27T08:32:40.052Z,45
2017-09-27T08:33:48.894Z,40
2017-09-27T08:34:57.729Z,35
2017-09-27T08:36:06.563Z,40
2017-09-27T08:37:15.396Z,30
2017-09-27T08:38:24.234Z,35
2017-09-27T08:39:33.068Z,40
2017-09-27T08:40:41.907Z,30
2017-09-27T08:41:51.067Z,25
2017-09-27T08:42:59.899Z,25
2017-09-27T08:44:08.735Z,30
2017-09-27T08:45:17.573Z,35
2017-09-27T08:46:26.415Z,40
2017-09-27T08:47:35.574Z,35
2017-09-27T08:48:44.738Z,35
2017-09-27T08:49:53.577Z,40
2017-09-27T08:51:02.745Z,35
2017-09-27T08:52:11.586Z,60
2017-09-27T08:53:20.417Z,55
2017-09-27T08:54:29.257Z,50
2017-09-27T08:55:38.095Z,60
2017-09-27T08:56:47.262Z,45
2017-09-27T08:57:56.097Z,45
2017-09-27T08:59:04.928Z,60
2017-09-27T09:00:13.772Z,50
2017-09-27T09:01:22.924Z,70
2017-09-27T09:02:31.768Z,55
2017-09-27T09:03:40.600Z,40
2017-09-27T09:04:49.435Z,40
2017-09-27T09:05:58.264Z,50
2017-09-27T09:07:07.097Z,50
2017-09-27T09:08:15.936Z,55
2017-09-27T09:09:24.772Z,55
2017-09-27T09:10:33.607Z,50
2017-09-27T09:11:42.441Z,55
2017-09-27T09:12:51.279Z,55
2017-09-27T09:14:00.119Z,50
2017-09-27T09:15:09.276Z,50
2017-09-27T09:16:18.114Z,55
2017-09-27T09:17:26.942Z,65
2017-09-27T09:18:35.775Z,55
2017-09-27T09:19:44.614Z,55
2017-09-27T09:20:53.456Z,50
2017-09-27T09:22:02.289Z,50
2017-09-27T09:23:11.120Z,50
2017-09-27T09:24:19.956Z,50
2017-09-27T09:25:28.790Z,55
2017-09-27T09:26:37.624Z,65
2017-09-27T09:27:46.458Z,80
2017-09-27T09:28:55.293Z,60
2017-09-27T09:30:04.127Z,65
2017-09-27T09:31:12.968Z,70
2017-09-27T09:32:21.804Z,65
2017-09-27T09:33:30.638Z,65
2017-09-27T09:34:39.469Z,70
2017-09-27T09:35:48.309Z,60
2017-09-27T09:36:57.148Z,60
2017-09-27T09:38:05.983Z,65
2017-09-27T09:39:14.817Z,70
2017-09-27T09:40:23.651Z,65
2017-09-27T09:41:32.489Z,65
2017-09-27T09:42:41.324Z,60
2017-09-27T09:43:50.163Z,60
2017-09-27T09:44:59.002Z,60
2017-09-27T09:46:07.834Z,55
2017-09-27T09:47:16.671Z,65
2017-09-27T09:48:25.505Z,60
2017-09-27T09:49:34.353Z,55
2017-09-27T09:50:43.189Z,55
2017-09-27T09:51:52.024Z,55
2017-09-27T09:53:00.862Z,55
2017-09-27T09:54:09.701Z,60
2017-09-27T09:55:18.540Z,55
2017-09-27T09:56:27.373Z,55
2017-09-27T09:57:36.210Z,60
2017-09-27T09:58:45.047Z,55
2017-09-27T09:59:53.888Z,55
2017-09-27T10:01:02.719Z,55
2017-09-27T10:02:11.553Z,55
2017-09-27T10:03:20.388Z,65
2017-09-27T10:04:29.234Z,60
2017-09-27T10:05:38.390Z,60
2017-09-27T10:06:47.226Z,65
2017-09-27T10:07:56.057Z,60
2017-09-27T10:09:04.888Z,60
2017-09-27T10:10:13.752Z,55
2017-09-27T10:11:22.566Z,65
2017-09-27T10:12:31.430Z,85
2017-09-27T10:13:40.239Z,65
2017-09-27T10:14:49.074Z,65
2017-09-27T10:15:58.234Z,60
2017-09-27T10:17:07.070Z,65
2017-09-27T10:18:15.910Z,70
2017-09-27T10:19:24.744Z,70
2017-09-27T10:20:33.904Z,65
2017-09-27T10:21:42.741Z,75
2017-09-27T10:22:51.576Z,55
2017-09-27T10:24:00.417Z,60
2017-09-27T10:25:09.579Z,55
2017-09-27T10:26:18.417Z,55
2017-09-27T10:27:27.570Z,55
2017-09-27T10:28:36.402Z,55
2017-09-27T10:29:45.237Z,75
2017-09-27T10:30:54.076Z,70
2017-09-27T10:32:02.915Z,70
2017-09-27T10:33:11.751Z,60
2017-09-27T10:34:20.580Z,70
2017-09-27T10:35:29.418Z,60
2017-09-27T10:36:38.254Z,55
2017-09-27T10:37:47.091Z,50
2017-09-27T10:38:55.929Z,60
2017-09-27T10:40:04.763Z,60
2017-09-27T10:41:13.596Z,80
2017-09-27T10:42:22.439Z,75
2017-09-27T10:43:31.273Z,70
2017-09-27T10:44:40.112Z,70
2017-09-27T10:45:48.980Z,65
2017-09-27T10:46:58.140Z,55
2017-09-27T10:48:06.972Z,50
2017-09-27T10:49:15.813Z,50
2017-09-27T10:50:24.655Z,50
2017-09-27T10:51:33.496Z,50
2017-09-27T10:52:42.326Z,45
2017-09-27T10:53:51.157Z,50
2017-09-27T10:54:59.999Z,55
2017-09-27T10:56:08.830Z,50
2017-09-27T10:57:17.662Z,50
2017-09-27T10:58:26.497Z,45
2017-09-27T10:59:35.334Z,50
2017-09-27T11:00:44.508Z,45
2017-09-27T11:01:53.684Z,45
2017-09-27T11:03:02.860Z,40
2017-09-27T11:04:11.693Z,50
2017-09-27T11:05:20.532Z,75
2017-09-27T11:06:29.697Z,85
2017-09-27T11:07:39.228Z,70
2017-09-27T11:08:49.097Z,55
2017-09-27T11:09:59.366Z,55
2017-09-27T11:11:08.895Z,65
2017-09-27T11:12:18.716Z,70
2017-09-27T11:13:27.554Z,65
2017-09-27T11:14:36.389Z,65
2017-09-27T11:15:45.224Z,65
2017-09-27T11:16:54.060Z,55
2017-09-27T11:18:02.901Z,50
2017-09-27T11:19:11.740Z,55
2017-09-27T11:20:20.576Z,50
2017-09-27T11:21:29.413Z,50
2017-09-27T11:22:38.244Z,55
2017-09-27T11:23:47.084Z,50
2017-09-27T11:24:55.922Z,45
2017-09-27T11:26:04.755Z,55
2017-09-27T11:27:13.596Z,55
2017-09-27T11:28:22.425Z,50
2017-09-27T11:29:31.267Z,55
2017-09-27T11:30:40.107Z,50
2017-09-27T11:31:48.941Z,55
2017-09-27T11:32:57.777Z,55
2017-09-27T11:34:06.615Z,65
2017-09-27T11:35:15.449Z,55
2017-09-27T11:36:24.288Z,60
2017-09-27T11:37:33.123Z,65
2017-09-27T11:38:41.953Z,75
2017-09-27T11:39:50.792Z,75
2017-09-27T11:40:59.631Z,85
2017-09-27T11:42:08.463Z,75
2017-09-27T11:43:17.305Z,70
2017-09-27T11:44:26.138Z,85
2017-09-27T11:45:34.977Z,70
2017-09-27T11:46:43.816Z,70
2017-09-27T11:47:52.656Z,70
2017-09-27T11:49:01.490Z,70
2017-09-27T11:50:10.332Z,60
2017-09-27T11:51:19.166Z,60
2017-09-27T11:52:28.004Z,70
2017-09-27T11:53:36.845Z,55
2017-09-27T11:54:45.687Z,65
2017-09-27T11:55:54.521Z,80
2017-09-27T11:57:03.383Z,65
2017-09-27T11:58:12.198Z,65
2017-09-27T11:59:21.041Z,65
2017-09-27T12:00:29.882Z,50
2017-09-27T12:01:38.719Z,50
2017-09-27T12:02:47.555Z,55
2017-09-27T12:03:56.391Z,55
2017-09-27T12:05:05.228Z,50
2017-09-27T12:06:14.067Z,50
2017-09-27T12:07:22.905Z,45
2017-09-27T12:08:31.739Z,50
2017-09-27T12:09:40.585Z,50
2017-09-27T12:10:49.422Z,45
2017-09-27T12:11:58.257Z,45
2017-09-27T12:13:07.097Z,50
2017-09-27T12:14:15.935Z,55
2017-09-27T12:15:24.775Z,60
2017-09-27T12:16:33.609Z,65
2017-09-27T12:17:42.448Z,55
2017-09-27T12:18:51.286Z,55
2017-09-27T12:20:00.127Z,55
2017-09-27T12:21:08.960Z,60
2017-09-27T12:22:17.799Z,65
2017-09-27T12:23:26.961Z,55
2017-09-27T12:24:35.801Z,50
2017-09-27T12:25:44.641Z,50
2017-09-27T12:26:53.479Z,50
2017-09-27T12:28:02.315Z,50
2017-09-27T12:29:11.154Z,50
2017-09-27T12:30:19.996Z,50
2017-09-27T12:31:28.835Z,45
2017-09-27T12:32:37.677Z,50
2017-09-27T12:33:46.511Z,45
2017-09-27T12:34:55.356Z,45
2017-09-27T12:36:04.528Z,45
2017-09-27T12:37:13.370Z,40
2017-09-27T12:38:22.206Z,35
2017-09-27T12:39:31.044Z,35
2017-09-27T12:40:39.885Z,35
2017-09-27T12:41:48.721Z,35
2017-09-27T12:42:57.560Z,35
2017-09-27T12:44:06.398Z,35
2017-09-27T12:45:15.236Z,35
2017-09-27T12:46:24.077Z,35
2017-09-27T12:47:32.914Z,40
2017-09-27T12:48:42.069Z,40
2017-09-27T12:49:50.908Z,45
2017-09-27T12:50:59.743Z,35
2017-09-27T12:52:08.579Z,40
2017-09-27T12:53:17.415Z,40
2017-09-27T12:54:26.261Z,50
2017-09-27T12:55:35.094Z,45
2017-09-27T12:56:43.932Z,45
2017-09-27T12:57:52.765Z,50
2017-09-27T12:59:01.601Z,45
2017-09-27T13:00:10.439Z,50
2017-09-27T13:01:19.613Z,55
2017-09-27T13:02:28.452Z,45
2017-09-27T13:03:37.292Z,50
2017-09-27T13:04:46.130Z,50
2017-09-27T13:05:54.967Z,50
2017-09-27T13:07:03.804Z,40
2017-09-27T13:08:12.647Z,30
2017-09-27T13:09:21.480Z,30
2017-09-27T13:10:30.324Z,30
2017-09-27T13:11:39.157Z,30
2017-09-27T13:12:47.999Z,30
2017-09-27T13:13:56.837Z,30
2017-09-27T13:15:05.679Z,35
2017-09-27T13:16:14.512Z,35
2017-09-27T13:17:23.345Z,35
2017-09-27T13:18:32.183Z,35
2017-09-27T13:19:41.020Z,35
2017-09-27T13:20:49.861Z,40
2017-09-27T13:21:58.698Z,35
2017-09-27T13:23:07.535Z,35
2017-09-27T13:24:16.376Z,35
2017-09-27T13:25:25.211Z,35
2017-09-27T13:26:34.054Z,35
2017-09-27T13:27:43.217Z,35
2017-09-27T13:28:52.051Z,30
2017-09-27T13:30:00.891Z,30
2017-09-27T13:31:09.724Z,30
2017-09-27T13:32:18.565Z,30
2017-09-27T13:33:27.403Z,35
2017-09-27T13:34:36.247Z,35
2017-09-27T13:35:45.081Z,40
2017-09-27T13:36:53.920Z,40
2017-09-27T13:38:02.763Z,35
2017-09-27T13:39:11.598Z,35
2017-09-27T13:40:20.440Z,35
2017-09-27T13:41:29.601Z,35
2017-09-27T13:42:38.433Z,35
2017-09-27T13:43:47.275Z,40
2017-09-27T13:44:56.118Z,35
2017-09-27T13:46:04.959Z,40
2017-09-27T13:47:14.147Z,35
2017-09-27T13:48:22.983Z,35
2017-09-27T13:49:31.817Z,30
2017-09-27T13:50:40.656Z,35
2017-09-27T13:51:49.498Z,30
2017-09-27T13:52:58.335Z,30
2017-09-27T13:54:07.169Z,30
2017-09-27T13:55:16.009Z,30
2017-09-27T13:56:24.848Z,30
2017-09-27T13:57:33.687Z,30
2017-09-27T13:58:42.523Z,30
2017-09-27T13:59:51.359Z,30
2017-09-27T14:01:00.197Z,30
2017-09-27T14:02:09.037Z,30
2017-09-27T14:03:17.873Z,30
2017-09-27T14:04:26.718Z,30
2017-09-27T14:05:35.557Z,30
2017-09-27T14:06:44.396Z,30
2017-09-27T14:07:53.235Z,30
2017-09-27T14:09:02.069Z,30
2017-09-27T14:10:10.909Z,25
2017-09-27T14:11:19.750Z,25
2017-09-27T14:12:28.583Z,25
2017-09-27T14:13:37.419Z,25
2017-09-27T14:14:46.254Z,25
2017-09-27T14:15:55.099Z,25
2017-09-27T14:17:03.931Z,25
2017-09-27T14:18:12.769Z,25
2017-09-27T14:19:21.604Z,25
2017-09-27T14:20:30.442Z,25
2017-09-27T14:21:39.281Z,25
2017-09-27T14:22:48.124Z,25
2017-09-27T14:23:56.958Z,25
2017-09-27T14:25:05.801Z,25
2017-09-27T14:26:14.638Z,30
2017-09-27T14:27:23.480Z,30
2017-09-27T14:28:32.313Z,30
2017-09-27T14:29:41.156Z,35
2017-09-27T14:30:49.993Z,35
2017-09-27T14:31:59.162Z,35
2017-09-27T14:33:07.998Z,35
2017-09-27T14:34:16.835Z,40
2017-09-27T14:35:25.671Z,40
2017-09-27T14:36:34.509Z,40
2017-09-27T14:37:43.347Z,35
2017-09-27T14:38:52.185Z,35
2017-09-27T14:40:01.025Z,35
2017-09-27T14:41:09.859Z,35
2017-09-27T14:42:19.068Z,35
2017-09-27T14:43:27.901Z,35
2017-09-27T14:44:36.735Z,40
2017-09-27T14:45:45.574Z,35
2017-09-27T14:46:54.412Z,35
2017-09-27T14:48:03.253Z,35
2017-09-27T14:49:12.088Z,35
2017-09-27T14:50:20.934Z,30
2017-09-27T14:51:29.773Z,30
2017-09-27T14:52:38.612Z,30
2017-09-27T14:53:47.448Z,30
2017-09-27T14:54:56.285Z,30
2017-09-27T14:56:05.120Z,30
2017-09-27T14:57:13.961Z,30
2017-09-27T14:58:22.801Z,30
2017-09-27T14:59:31.643Z,30
2017-09-27T15:00:40.483Z,30
2017-09-27T15:01:49.321Z,30
2017-09-27T15:02:58.156Z,30
2017-09-27T15:04:06.996Z,30
2017-09-27T15:05:15.835Z,30
2017-09-27T15:06:24.997Z,25
2017-09-27T15:07:33.834Z,25
2017-09-27T15:08:43.000Z,25
2017-09-27T15:09:51.841Z,25
2017-09-27T15:11:00.683Z,25
2017-09-27T15:12:09.522Z,25
2017-09-27T15:13:18.359Z,25
2017-09-27T15:14:27.242Z,25
2017-09-27T15:15:36.086Z,25
2017-09-27T15:16:44.921Z,25
2017-09-27T15:17:53.768Z,20
2017-09-27T15:19:02.602Z,20
2017-09-27T15:20:11.448Z,20
2017-09-27T15:21:20.283Z,20
2017-09-27T15:22:29.128Z,15
2017-09-27T15:23:38.293Z,15
2017-09-27T15:24:47.126Z,15
2017-09-27T15:25:55.965Z,15
2017-09-27T15:27:04.806Z,15
2017-09-27T15:28:13.649Z,15
2017-09-27T15:29:22.488Z,20
2017-09-27T15:30:31.644Z,20
2017-09-27T15:31:40.808Z,20
2017-09-27T15:32:49.646Z,20
2017-09-27T15:33:58.487Z,15
2017-09-27T15:35:07.324Z,15
2017-09-27T15:36:16.158Z,15
2017-09-27T15:37:25.000Z,15
2017-09-27T15:38:33.843Z,15
2017-09-27T15:39:42.678Z,15
2017-09-27T15:40:51.515Z,15
2017-09-27T15:42:00.355Z,15
2017-09-27T15:43:09.187Z,10
2017-09-27T15:44:18.360Z,10
2017-09-27T15:45:27.200Z,10
2017-09-27T15:46:36.038Z,10
2017-09-27T15:47:44.880Z,10
2017-09-27T15:48:53.721Z,10
2017-09-27T15:50:02.558Z,10
2017-09-27T15:51:11.400Z,10
2017-09-27T15:52:20.235Z,10
2017-09-27T15:53:29.074Z,10
2017-09-27T15:54:37.912Z,10
2017-09-27T15:55:46.751Z,10
2017-09-27T15:56:55.588Z,10
2017-09-27T15:58:04.430Z,10
2017-09-27T15:59:13.267Z,10
2017-09-27T16:00:22.106Z,10
2017-09-27T16:01:30.944Z,10
2017-09-27T16:02:39.788Z,10
2017-09-27T16:03:48.629Z,10
2017-09-27T16:04:57.464Z,10
2017-09-27T16:06:06.300Z,10
2017-09-27T16:07:15.140Z,10
2017-09-27T16:08:23.981Z,5
2017-09-27T16:09:32.823Z,5
2017-09-27T16:10:41.659Z,5
2017-09-27T16:11:50.497Z,5
2017-09-27T16:12:59.339Z,5
2017-09-27T16:14:08.498Z,5
2017-09-27T16:15:17.339Z,5
2017-09-27T16:16:26.178Z,5
2017-09-27T16:17:35.017Z,5
2017-09-27T16:18:43.855Z,5
2017-09-27T16:19:53.014Z,5
2017-09-27T16:21:01.856Z,5
2017-09-27T16:22:10.691Z,5
2017-09-27T16:23:19.533Z,5
2017-09-27T16:24:28.370Z,0
2017-09-27T16:25:37.225Z,0
2017-09-27T16:26:46.066Z,0
2017-09-27T16:27:54.902Z,0
2017-09-27T16:29:03.734Z,0
2017-09-27T16:30:12.898Z,0
2017-09-27T16:31:21.735Z,0
2017-09-27T16:32:30.569Z,0
2017-09-27T16:33:39.407Z,0
2017-09-27T16:34:48.579Z,0
2017-09-27T16:35:57.410Z,0
2017-09-27T16:37:06.254Z,0